Address 0xaf0b15b71bf00fd4b127c3deeff91625b7b6883d

 
 
Txn Hash Method
Block
From
To
Value [Txn Fee]
0x98e15e019b9e0bb8f336e72c9e23390fe59cd52e1fbc7c47a424276bb4ede5d9Swap Exact Token...300695332022-06-27 19:06:362 days 23 hrs ago0xaf0b15b71bf00fd4b127c3deeff91625b7b6883dOUT SushiSwap: Router0 MATIC0.008027790189 44.947174995
0xb519291fd83f8bd13adb4989d3d6628d0a7bf152ba75ed76fdba1c4e12872d51Swap Exact Token...300695142022-06-27 19:05:202 days 23 hrs ago0xaf0b15b71bf00fd4b127c3deeff91625b7b6883dOUT SushiSwap: Router0 MATIC0.004219793673 36.20213855
0x58aa5c2e5b4d3c61224fd66d83f6fb6e406e85a6356a6c8c42d10239aa322cddSwap Exact Token...299185672022-06-23 20:11:566 days 22 hrs ago0xaf0b15b71bf00fd4b127c3deeff91625b7b6883dOUT SushiSwap: Router0 MATIC0.00859356716 48.114930491
0x5fb21c621c840f10755b357cfa0bc95a4b31bce56503bd03ae0b8d5be6ca3eecSwap Exact Token...299184782022-06-23 20:08:546 days 22 hrs ago0xaf0b15b71bf00fd4b127c3deeff91625b7b6883dOUT SushiSwap: Router0 MATIC0.004892579563 41.965412342
0x0d9fdce59fa68ed103793da1b96d84659182453731d2a982600eeef21a46c4ccSwap Exact Token...296906352022-06-17 21:20:5812 days 21 hrs ago0xaf0b15b71bf00fd4b127c3deeff91625b7b6883dOUT SushiSwap: Router0 MATIC0.006948278048 35.501658253
0x951801c6de8ccb971d6872b14e4f49ead46b31a1a36717b2fb0df66a58fe845aSwap Exact Token...295679202022-06-14 18:48:5116 days 16 mins ago0xaf0b15b71bf00fd4b127c3deeff91625b7b6883dOUT SushiSwap: Router0 MATIC0.003239707111 31.065599519
0x5458052f03e3f569e386612bc8446d5dae26c128d8db24c54a8e294aedcfa435Approve295679052022-06-14 18:48:2116 days 16 mins ago0xaf0b15b71bf00fd4b127c3deeff91625b7b6883dOUT 0x5d2375c6af4b7de4e395ada20aab937895b4fa700 MATIC0.000899397783 33.682787194
0xcd6d51d8baf6d59cdd7c58b8a4cdd633374a3af987084aaedee251b7b314bc55Approve295678922022-06-14 18:47:5516 days 17 mins ago0xaf0b15b71bf00fd4b127c3deeff91625b7b6883dOUT 0x5d2375c6af4b7de4e395ada20aab937895b4fa700 MATIC0.000882208415 33.039038861
0xae68b782967d5990fafc70ba70e9f2f7959fd96daa0e7744e9f817fe1baf12c1Approve295678912022-06-14 18:47:5316 days 17 mins ago0xaf0b15b71bf00fd4b127c3deeff91625b7b6883dOUT 0x5d2375c6af4b7de4e395ada20aab937895b4fa700 MATIC0.000861031734 32.245964126
0x805784e92af78f93bc38ae67966f35667773b862b424aad00cb3c9f8981e71ecApprove295678762022-06-14 18:47:2316 days 17 mins ago0xaf0b15b71bf00fd4b127c3deeff91625b7b6883dOUT 0x5d2375c6af4b7de4e395ada20aab937895b4fa700 MATIC0.001457063153 31.266107749
0x9a024f20f862db59199744b04a46b271fa13a3a014c4acdb71ca286cb4dea724Create Order291592482022-06-04 15:14:5826 days 3 hrs ago0xaf0b15b71bf00fd4b127c3deeff91625b7b6883dOUT 0x13794ce30b05b4e6f04820d5064d089ec2afdaeb0 MATIC0.004652100002 30.000000017
0x408e11201c79af77df81b7c22673d19df5e6bc0e8dcc4177f0c169a3b6740c4bCreate Order291592232022-06-04 15:14:0426 days 3 hrs ago0xaf0b15b71bf00fd4b127c3deeff91625b7b6883dOUT 0x13794ce30b05b4e6f04820d5064d089ec2afdaeb0 MATIC0.0046629549 30.070000001
0x782f030d7631c263d5c555794c861b07ec13b92dce05fd287e584a2b65e9fc96Create Order291591942022-06-04 15:13:0626 days 3 hrs ago0xaf0b15b71bf00fd4b127c3deeff91625b7b6883dOUT 0x13794ce30b05b4e6f04820d5064d089ec2afdaeb0 MATIC0.005252593068 33.8724
0x6725ac11dd4a6f641b243921a4328c104123d2854839e6887b475ce540a98cc0Mint Players291248122022-06-03 18:26:3827 days 38 mins ago0xaf0b15b71bf00fd4b127c3deeff91625b7b6883dOUT 0x28f49ba7b20cad0a8256be34484cf733b0f9a88f0 MATIC0.090671614052 59.041261764
0x04498579a42cdd526f704619b6d91ed4ef38cde5b8304dd5829eb207cbf037b3Finish Scouting291247662022-06-03 18:25:0227 days 39 mins ago0xaf0b15b71bf00fd4b127c3deeff91625b7b6883dOUT 0x28f49ba7b20cad0a8256be34484cf733b0f9a88f0 MATIC0.023283742262 60.118881634
0xca5c1b450cb68b7504d64f3d8ca47db50901e3145464279db9c111ff262279f0Send To Scouting288459532022-05-27 20:33:0033 days 22 hrs ago0xaf0b15b71bf00fd4b127c3deeff91625b7b6883dOUT 0x28f49ba7b20cad0a8256be34484cf733b0f9a88f0 MATIC0.016775062828 36.073774795
0x128f6d75e2730e9bc7f662ff2bb45f2cb379eef352cfc232aca7ceb9671fe711Swap Exact Token...288459372022-05-27 20:32:2433 days 22 hrs ago0xaf0b15b71bf00fd4b127c3deeff91625b7b6883dOUT SushiSwap: Router0 MATIC0.004065578813 37.202298741
0x627329cc92e04a20317113a5b08b2d105bde92a447faf886ea770cfab2473a2aSwap Exact Token...288459002022-05-27 20:31:1033 days 22 hrs ago0xaf0b15b71bf00fd4b127c3deeff91625b7b6883dOUT SushiSwap: Router0 MATIC0.007188807585 42.21806449
0x76348844c6b7f95bd497137d6d701df9ccd30237bb12ac8edf7afe06b72c50f3Execute Order281241192022-05-09 20:01:4351 days 23 hrs ago0xaf0b15b71bf00fd4b127c3deeff91625b7b6883dOUT 0x13794ce30b05b4e6f04820d5064d089ec2afdaeb0 MATIC0.324573508052 2,244.692163358
0xd96687e26bd64b873dfab1ad8b4f6cf2872a38a37f46c6a97b84a089d6fc1906Mint Players280004252022-05-06 18:00:3455 days 1 hr ago0xaf0b15b71bf00fd4b127c3deeff91625b7b6883dOUT 0x28f49ba7b20cad0a8256be34484cf733b0f9a88f0 MATIC0.090140021585 47.593112034
0xfc8f335e33892a771fa17c3adf2188686b4e55f9edbaf6297a378d10b04c8ff1Finish Scouting280004002022-05-06 17:59:4455 days 1 hr ago0xaf0b15b71bf00fd4b127c3deeff91625b7b6883dOUT 0x28f49ba7b20cad0a8256be34484cf733b0f9a88f0 MATIC0.017946623444 46.338381452
0xba9c85f52478c04ad83fda65f52f50ea2f9312cfb6a2fb65579ec9bce46a8fb8Mint Players278841812022-05-03 18:31:1458 days 33 mins ago0xaf0b15b71bf00fd4b127c3deeff91625b7b6883dOUT 0x28f49ba7b20cad0a8256be34484cf733b0f9a88f0 MATIC0.169695381274 110.497971506
0x9046b0ded9087b981c2634cb643805eba5c826aa1e33d08623557aed5a0548dcFinish Scouting278841522022-05-03 18:30:1258 days 34 mins ago0xaf0b15b71bf00fd4b127c3deeff91625b7b6883dOUT 0x28f49ba7b20cad0a8256be34484cf733b0f9a88f0 MATIC0.043687594351 106.583963833
0xe8a45df019d370d88e6d3276b10c51e878f6f2492415dbe7bf91c12879f5561bTransfer278050482022-05-01 18:21:1460 days 43 mins ago0xaf0b15b71bf00fd4b127c3deeff91625b7b6883dOUT0x8a7bf6dfd04b8b6f6992b6f7bab72c4dbed0e8d8280 MATIC0.000686450852 32.688135833
0x05eb245264ada20d8bb893c89de35c964d8f39df8f8ce543ad75ba2a8c535cfbSwap Exact Token...278050022022-05-01 18:19:4260 days 45 mins ago0xaf0b15b71bf00fd4b127c3deeff91625b7b6883dOUT QuickSwap: Router0 MATIC0.003905989108 30.466507873
[ Download CSV Export 
Latest 3 internal transactions
Parent Txn Hash Block From To Value
0x05eb245264ada20d8bb893c89de35c964d8f39df8f8ce543ad75ba2a8c535cfb278050022022-05-01 18:19:4260 days 45 mins ago QuickSwap: Router0xaf0b15b71bf00fd4b127c3deeff91625b7b6883d280.557356771731476703 MATIC
0xbffa7ff0806f7bc306d4a339f9f3a53aa81f98be09676268dabba870902188bb267305542022-04-04 10:29:3687 days 8 hrs ago QuickSwap: Router0xaf0b15b71bf00fd4b127c3deeff91625b7b6883d97.406541965439859813 MATIC
0x149df2fa518a72176310f16b41bf6d465736708864e17e28e708a4c4a7481904267305222022-04-04 10:28:3287 days 8 hrs ago QuickSwap: Router0xaf0b15b71bf00fd4b127c3deeff91625b7b6883d9.373286734569258577 MATIC
[ Download CSV Export 
Loading

Contract Name:
0 MATIC

Compiler Version
0

Optimization Enabled:
0 MATIC

Other Settings:
-NA-
Block Transaction Gas Used Reward
Age Block Fee Address BC Fee Address Voting Power Jailed Incoming
Block Uncle Number Difficulty Gas Used Reward
Loading
Loading
Make sure to use the "Vote Down" button for any spammy posts, and the "Vote Up" for interesting conversations.